Time;durP1;ratioP1;P1;durP2;ratioP2;P2;SDS_P1;SDS_P2;PMS_P1;PMS_P2;Temp;Humidity;BMP_temperature;BMP_pressure;BME280_temperature;BME280_humidity;BME280_pressure;Samples;Min_cycle;Max_cycle;Signal;HPM_P1;HPM_P2
2022/01/20 00:01:47;;;;;;;5.93;3.85;;;5.50;54.50;;;;;;6126431;23;20168;-67
2022/01/20 00:04:21;;;;;;;6.50;3.85;;;5.40;54.50;;;;;;6126672;23;20201;-66
2022/01/20 00:20:30;;;;;;;5.57;3.92;;;5.50;54.40;;;;;;6126758;23;20150;-67
2022/01/20 00:26:30;;;;;;;6.22;3.70;;;5.50;54.60;;;;;;6088979;23;20165;-67
2022/01/20 00:29:02;;;;;;;6.68;3.88;;;5.40;54.50;;;;;;6126535;23;20168;-66
2022/01/20 00:31:43;;;;;;;6.97;3.50;;;5.40;54.60;;;;;;6126400;23;20600;-67
2022/01/20 00:34:18;;;;;;;6.57;3.88;;;5.40;54.60;;;;;;6126522;23;20161;-67
2022/01/20 00:39:31;;;;;;;6.60;4.47;;;5.40;54.80;;;;;;6126767;23;20208;-66
2022/01/20 00:41:59;;;;;;;7.03;3.65;;;5.30;54.90;;;;;;6126042;23;20220;-66
2022/01/20 00:44:32;;;;;;;7.35;4.05;;;5.30;55.00;;;;;;6126859;23;20239;-66
2022/01/20 00:47:00;;;;;;;7.25;3.60;;;5.30;54.80;;;;;;6126590;23;20192;-66
2022/01/20 00:49:27;;;;;;;5.53;3.50;;;5.30;55.00;;;;;;6126734;23;20173;-67
2022/01/20 00:51:54;;;;;;;4.55;3.70;;;5.20;55.10;;;;;;6126610;23;20169;-66
2022/01/20 00:54:22;;;;;;;7.53;4.38;;;5.20;55.20;;;;;;6126398;23;20169;-66
2022/01/20 00:56:51;;;;;;;5.07;3.60;;;5.10;55.40;;;;;;6126222;23;20173;-66
2022/01/20 00:59:20;;;;;;;7.07;4.07;;;5.00;55.70;;;;;;6126593;23;20173;-67
2022/01/20 01:01:47;;;;;;;5.50;3.65;;;5.00;56.10;;;;;;6126047;23;20834;-66
2022/01/20 01:04:15;;;;;;;7.78;3.42;;;5.00;56.30;;;;;;6126140;23;20656;-66
2022/01/20 01:07:00;;;;;;;6.47;4.40;;;4.90;56.40;;;;;;6126093;23;20225;-67
2022/01/20 01:09:28;;;;;;;7.13;4.00;;;4.90;56.50;;;;;;6126363;23;20239;-66
2022/01/20 01:12:14;;;;;;;5.70;3.15;;;4.90;56.60;;;;;;6126332;23;20538;-66
2022/01/20 01:14:48;;;;;;;5.50;3.28;;;4.90;56.90;;;;;;6126508;23;20157;-67
2022/01/20 01:20:17;;;;;;;8.10;4.15;;;4.90;56.90;;;;;;6089008;23;20165;-66
2022/01/20 01:22:44;;;;;;;5.45;3.70;;;4.90;56.80;;;;;;6126059;23;20192;-66
2022/01/20 01:25:12;;;;;;;6.20;3.80;;;4.90;56.70;;;;;;6125900;23;20176;-66
2022/01/20 01:27:42;;;;;;;9.95;3.78;;;5.00;56.90;;;;;;6125976;23;20251;-66
2022/01/20 01:30:39;;;;;;;7.30;2.83;;;4.90;56.90;;;;;;6125885;23;20165;-67
2022/01/20 01:33:07;;;;;;;5.45;3.00;;;4.90;56.90;;;;;;6126154;23;20228;-66
2022/01/20 01:35:39;;;;;;;3.95;2.70;;;4.90;57.00;;;;;;6126005;23;20196;-66
2022/01/20 01:38:35;;;;;;;5.32;2.90;;;4.90;57.00;;;;;;6125788;23;20188;-67
2022/01/20 01:41:12;;;;;;;4.78;3.70;;;4.90;56.90;;;;;;6126560;23;20211;-66
2022/01/20 01:43:48;;;;;;;5.18;3.75;;;5.00;56.70;;;;;;6124393;23;20192;-66
2022/01/20 01:46:17;;;;;;;5.43;2.90;;;5.00;56.60;;;;;;6125994;23;20188;-66
2022/01/20 01:48:56;;;;;;;6.53;2.55;;;5.00;56.50;;;;;;6126014;23;20169;-66
2022/01/20 01:51:25;;;;;;;4.53;3.35;;;5.00;56.60;;;;;;6126339;23;20160;-66
2022/01/20 01:54:00;;;;;;;5.18;3.53;;;5.00;56.40;;;;;;6125707;23;20169;-66
2022/01/20 01:56:27;;;;;;;6.80;2.75;;;5.00;56.30;;;;;;6126252;23;20153;-66
2022/01/20 01:58:55;;;;;;;5.00;3.20;;;5.00;56.40;;;;;;6125393;23;20176;-66
2022/01/20 02:01:26;;;;;;;4.93;3.22;;;5.10;56.10;;;;;;6126045;23;20169;-66
2022/01/20 02:04:00;;;;;;;4.25;2.67;;;5.00;56.10;;;;;;6125766;23;20181;-67
2022/01/20 02:09:25;;;;;;;4.50;2.92;;;5.00;56.30;;;;;;6124113;23;20165;-67
2022/01/20 02:17:55;;;;;;;5.25;3.55;;;5.00;56.60;;;;;;6081086;23;20169;-66
2022/01/20 02:20:24;;;;;;;4.13;2.70;;;4.90;56.70;;;;;;6125923;23;20157;-66
2022/01/20 02:22:52;;;;;;;6.10;4.10;;;4.90;56.80;;;;;;6125880;23;20193;-66
2022/01/20 02:25:21;;;;;;;7.10;3.60;;;5.00;56.90;;;;;;6125601;23;20240;-67
2022/01/20 02:27:49;;;;;;;4.72;2.70;;;5.00;57.20;;;;;;6125371;23;20201;-66
2022/01/20 02:30:25;;;;;;;5.68;3.35;;;4.90;56.60;;;;;;6125818;23;20247;-66
2022/01/20 02:32:53;;;;;;;5.20;3.17;;;4.90;56.60;;;;;;6125473;23;20175;-67
2022/01/20 02:35:21;;;;;;;4.82;2.40;;;4.90;56.50;;;;;;6125276;23;20183;-67
2022/01/20 02:37:56;;;;;;;4.07;2.83;;;4.90;56.70;;;;;;6125789;23;20173;-66
2022/01/20 02:45:49;;;;;;;4.80;2.80;;;4.80;56.70;;;;;;6125050;23;20203;-67
2022/01/20 02:48:21;;;;;;;8.30;3.38;;;4.80;56.90;;;;;;6125920;23;20165;-67
2022/01/20 02:50:49;;;;;;;5.68;2.90;;;4.80;57.00;;;;;;6127610;23;20154;-66
2022/01/20 02:53:18;;;;;;;4.35;2.85;;;4.80;57.00;;;;;;6127640;23;20204;-66
2022/01/20 02:55:46;;;;;;;6.80;3.30;;;4.80;56.90;;;;;;6126934;23;20176;-73
2022/01/20 02:58:36;;;;;;;8.68;3.30;;;4.80;57.20;;;;;;6127667;23;20165;-66
2022/01/20 03:01:04;;;;;;;3.80;2.58;;;4.80;57.30;;;;;;6127432;23;20159;-66
2022/01/20 03:03:32;;;;;;;6.47;3.05;;;4.90;57.30;;;;;;6127165;23;20192;-67
2022/01/20 03:05:59;;;;;;;5.25;3.25;;;4.90;57.40;;;;;;6126986;23;20169;-67
2022/01/20 03:08:28;;;;;;;4.68;3.00;;;4.90;57.60;;;;;;6127359;23;20243;-66
2022/01/20 03:10:57;;;;;;;3.30;2.70;;;4.90;57.30;;;;;;6127158;23;20636;-67
2022/01/20 03:13:25;;;;;;;6.20;2.25;;;4.80;56.90;;;;;;6126998;23;20260;-66
2022/01/20 03:16:01;;;;;;;4.20;2.95;;;4.80;56.80;;;;;;6127157;23;20191;-66
2022/01/20 03:18:29;;;;;;;4.05;2.50;;;4.80;56.80;;;;;;6127203;23;20165;-66
2022/01/20 03:20:56;;;;;;;4.65;2.70;;;4.80;56.90;;;;;;6126817;23;20168;-66
2022/01/20 03:23:28;;;;;;;4.15;2.25;;;4.80;57.50;;;;;;6127129;23;20271;-67
2022/01/20 03:25:56;;;;;;;5.80;3.00;;;4.80;58.10;;;;;;6127379;23;20165;-67
2022/01/20 03:28:23;;;;;;;5.95;3.25;;;4.80;58.10;;;;;;6127485;23;20169;-66
2022/01/20 03:30:51;;;;;;;5.22;2.95;;;4.60;58.20;;;;;;6126805;23;20169;-66
2022/01/20 03:33:18;;;;;;;4.90;3.35;;;4.60;58.60;;;;;;6126932;23;20197;-67
2022/01/20 03:36:01;;;;;;;5.07;2.60;;;4.60;58.50;;;;;;6126522;23;20207;-67
2022/01/20 03:38:30;;;;;;;4.95;2.58;;;4.60;58.80;;;;;;6127330;23;20157;-66
2022/01/20 03:41:01;;;;;;;3.28;1.98;;;4.70;58.90;;;;;;6126378;23;20169;-67
2022/01/20 03:43:35;;;;;;;4.13;2.78;;;4.70;58.80;;;;;;6126895;23;20625;-66
2022/01/20 03:46:06;;;;;;;5.75;2.58;;;4.70;58.80;;;;;;6127148;23;20157;-68
2022/01/20 03:48:38;;;;;;;4.93;2.63;;;4.70;58.90;;;;;;6127336;23;20157;-67
2022/01/20 03:51:06;;;;;;;5.07;2.40;;;4.70;59.00;;;;;;6126631;23;20609;-67
2022/01/20 03:53:45;;;;;;;4.45;2.38;;;4.60;59.10;;;;;;6126784;23;20680;-67
2022/01/20 03:56:12;;;;;;;4.20;2.58;;;4.70;59.30;;;;;;6126703;23;20161;-66
2022/01/20 03:58:40;;;;;;;3.75;2.55;;;4.60;59.20;;;;;;6126761;23;20498;-67
2022/01/20 04:01:10;;;;;;;4.75;2.50;;;4.60;59.30;;;;;;6126336;23;20172;-67
2022/01/20 04:03:38;;;;;;;5.15;2.88;;;4.60;59.60;;;;;;6126021;23;20247;-66
2022/01/20 04:06:07;;;;;;;5.75;3.17;;;4.60;59.60;;;;;;6127200;23;20169;-69
2022/01/20 04:08:38;;;;;;;2.58;1.60;;;4.70;59.60;;;;;;6126584;23;20224;-67
2022/01/20 04:11:09;;;;;;;6.35;2.90;;;4.70;59.60;;;;;;6127371;23;20188;-67
2022/01/20 04:13:37;;;;;;;4.47;2.47;;;4.70;59.60;;;;;;6126398;23;20201;-67
2022/01/20 04:16:13;;;;;;;4.60;2.50;;;4.80;59.70;;;;;;6126836;23;20245;-67
2022/01/20 04:18:41;;;;;;;5.43;2.75;;;4.80;59.90;;;;;;6126459;23;20211;-67
2022/01/20 04:21:24;;;;;;;5.25;2.83;;;4.80;60.10;;;;;;6127141;23;20165;-67
2022/01/20 04:23:55;;;;;;;5.28;2.85;;;4.80;60.10;;;;;;6126291;23;20181;-67
2022/01/20 04:26:24;;;;;;;4.50;3.10;;;4.80;60.20;;;;;;6126976;23;20157;-67
2022/01/20 04:28:53;;;;;;;5.18;2.83;;;4.80;60.40;;;;;;6126381;23;20173;-66
2022/01/20 04:31:28;;;;;;;4.93;2.85;;;4.80;60.60;;;;;;6126597;23;20223;-67
2022/01/20 04:33:56;;;;;;;6.03;4.05;;;4.80;60.60;;;;;;6126407;23;20156;-67
2022/01/20 04:36:24;;;;;;;3.88;2.15;;;4.90;60.70;;;;;;6126426;23;20201;-67
2022/01/20 04:38:53;;;;;;;4.18;2.67;;;4.90;60.80;;;;;;6127009;23;20231;-67
2022/01/20 04:41:22;;;;;;;5.65;2.85;;;4.90;61.00;;;;;;6126819;23;20165;-67
2022/01/20 04:43:51;;;;;;;5.45;2.92;;;4.80;60.70;;;;;;6126021;23;20727;-66
2022/01/20 04:46:27;;;;;;;4.40;2.35;;;4.80;60.70;;;;;;6126547;23;20255;-67
2022/01/20 04:49:12;;;;;;;4.50;2.70;;;4.80;60.60;;;;;;6126965;23;20165;-67
2022/01/20 04:57:25;;;;;;;5.60;2.80;;;4.80;60.70;;;;;;6074115;23;20169;-67
2022/01/20 04:59:55;;;;;;;5.65;4.00;;;4.90;61.00;;;;;;6126286;23;20203;-67
2022/01/20 05:02:27;;;;;;;3.30;2.20;;;4.90;61.10;;;;;;6126256;23;20176;-67
2022/01/20 05:04:55;;;;;;;5.00;2.80;;;5.00;61.90;;;;;;6126719;23;20220;-66
2022/01/20 05:07:27;;;;;;;4.68;2.60;;;4.90;62.70;;;;;;6126616;23;20165;-67
2022/01/20 05:09:57;;;;;;;3.03;2.20;;;4.90;63.50;;;;;;6126911;23;20240;-67
2022/01/20 05:12:37;;;;;;;5.70;3.25;;;4.80;64.10;;;;;;6125880;23;20169;-66
2022/01/20 05:15:05;;;;;;;4.82;2.22;;;4.80;64.80;;;;;;6126358;23;20586;-66
2022/01/20 05:17:33;;;;;;;4.63;2.63;;;4.70;65.20;;;;;;6125985;23;20165;-67
2022/01/20 05:20:00;;;;;;;4.05;2.85;;;4.70;65.70;;;;;;6126016;23;20256;-67
2022/01/20 05:22:28;;;;;;;5.40;2.15;;;4.60;65.70;;;;;;6125622;23;20244;-68
2022/01/20 05:24:58;;;;;;;3.53;2.58;;;4.60;65.70;;;;;;6126535;23;20216;-67
2022/01/20 05:27:27;;;;;;;3.63;2.20;;;4.60;65.90;;;;;;6126595;23;20169;-67
2022/01/20 05:29:55;;;;;;;3.78;2.40;;;4.60;65.90;;;;;;6126099;23;20175;-66
2022/01/20 05:32:23;;;;;;;5.32;2.70;;;4.60;66.00;;;;;;6126497;23;20651;-66
2022/01/20 05:34:50;;;;;;;4.18;2.78;;;4.60;66.30;;;;;;6126727;23;20552;-66
2022/01/20 05:37:18;;;;;;;4.82;2.60;;;4.50;66.50;;;;;;6126393;23;20164;-67
2022/01/20 05:39:46;;;;;;;5.28;2.72;;;4.50;66.40;;;;;;6125724;23;20176;-67
2022/01/20 05:42:17;;;;;;;4.60;3.00;;;4.50;66.90;;;;;;6126003;23;20169;-67
2022/01/20 05:44:51;;;;;;;4.93;2.47;;;4.50;67.50;;;;;;6125676;23;20192;-66
2022/01/20 05:47:26;;;;;;;4.90;2.80;;;4.50;68.00;;;;;;6125802;23;20161;-67
2022/01/20 05:49:53;;;;;;;7.00;3.08;;;4.50;68.20;;;;;;6126118;23;20194;-66
2022/01/20 05:52:23;;;;;;;5.30;3.33;;;4.50;68.50;;;;;;6125604;23;20164;-67
2022/01/20 05:54:51;;;;;;;4.80;2.85;;;4.50;68.30;;;;;;6125603;23;20631;-66
2022/01/20 05:57:19;;;;;;;4.30;2.80;;;4.50;68.60;;;;;;6126097;23;20169;-67
2022/01/20 05:59:51;;;;;;;4.32;2.50;;;4.50;68.00;;;;;;6125532;23;20243;-67
2022/01/20 06:02:34;;;;;;;6.38;2.83;;;4.50;68.10;;;;;;6125895;23;20609;-66
2022/01/20 06:05:01;;;;;;;4.45;2.92;;;4.50;68.00;;;;;;6125958;23;20656;-66
2022/01/20 06:07:28;;;;;;;3.90;2.47;;;4.50;68.20;;;;;;6126288;23;20153;-67
2022/01/20 06:09:56;;;;;;;5.32;3.05;;;4.40;68.60;;;;;;6125848;23;20169;-67
2022/01/20 06:12:25;;;;;;;4.80;2.85;;;4.40;69.10;;;;;;6126187;23;20181;-66
2022/01/20 06:14:52;;;;;;;4.40;2.55;;;4.40;69.30;;;;;;6125707;23;20578;-66
2022/01/20 06:17:27;;;;;;;4.28;2.58;;;4.30;69.50;;;;;;6126080;23;20180;-66
2022/01/20 06:19:57;;;;;;;3.45;2.00;;;4.30;69.10;;;;;;6125638;23;20164;-67
2022/01/20 06:22:30;;;;;;;4.05;2.28;;;4.30;69.00;;;;;;6125378;23;20176;-66
2022/01/20 06:24:59;;;;;;;3.50;1.83;;;4.30;69.40;;;;;;6125332;23;20185;-66
2022/01/20 06:27:33;;;;;;;3.10;1.58;;;4.30;69.60;;;;;;6126082;23;20165;-66
2022/01/20 06:30:06;;;;;;;7.28;2.00;;;4.30;70.20;;;;;;6126035;23;20153;-68
2022/01/20 06:32:34;;;;;;;2.60;1.60;;;4.30;70.50;;;;;;6126103;23;20153;-67
2022/01/20 06:35:07;;;;;;;3.40;1.75;;;4.30;70.30;;;;;;6125137;23;20243;-69
2022/01/20 06:37:35;;;;;;;2.95;1.98;;;4.20;69.90;;;;;;6122597;23;20157;-67
2022/01/20 06:40:07;;;;;;;2.47;1.40;;;4.30;69.90;;;;;;6125045;23;20184;-67
2022/01/20 06:42:38;;;;;;;3.17;1.75;;;4.30;69.70;;;;;;6125010;23;20157;-67
2022/01/20 06:45:08;;;;;;;2.65;1.65;;;4.30;69.80;;;;;;6124456;23;20184;-67
2022/01/20 06:47:37;;;;;;;2.63;1.25;;;4.20;69.90;;;;;;6124970;23;20168;-67
2022/01/20 06:50:22;;;;;;;2.70;1.60;;;4.20;69.90;;;;;;6124743;23;20628;-67
2022/01/20 06:52:50;;;;;;;3.67;2.00;;;4.20;70.20;;;;;;6125126;23;20609;-66
2022/01/20 06:55:19;;;;;;;2.88;1.77;;;4.10;70.10;;;;;;6125231;23;20175;-66
2022/01/20 06:57:51;;;;;;;4.88;1.73;;;4.20;69.90;;;;;;6124503;23;20168;-66
2022/01/20 07:00:32;;;;;;;2.70;1.27;;;4.20;69.60;;;;;;6124954;23;20193;-66
2022/01/20 07:02:59;;;;;;;5.70;1.67;;;4.20;70.30;;;;;;6125360;23;20176;-66
2022/01/20 07:05:28;;;;;;;3.20;1.77;;;4.20;70.00;;;;;;6124902;23;20192;-66
2022/01/20 07:07:58;;;;;;;2.40;1.52;;;4.20;70.00;;;;;;6125106;23;20248;-66
2022/01/20 07:10:25;;;;;;;3.10;1.70;;;4.30;69.80;;;;;;6125363;23;20224;-67
2022/01/20 07:12:54;;;;;;;2.85;1.58;;;4.30;69.60;;;;;;6124364;23;20205;-67
2022/01/20 07:15:21;;;;;;;4.10;2.42;;;4.30;70.00;;;;;;6124991;23;20592;-66
2022/01/20 07:17:51;;;;;;;3.33;2.05;;;4.30;70.00;;;;;;6125286;23;20187;-68
2022/01/20 07:20:24;;;;;;;2.35;1.45;;;4.30;70.30;;;;;;6125035;23;20172;-67
2022/01/20 07:23:00;;;;;;;2.53;1.10;;;4.30;70.30;;;;;;6124596;23;20664;-66
2022/01/20 07:25:27;;;;;;;2.40;1.50;;;4.30;70.30;;;;;;6125436;23;20191;-66
2022/01/20 07:27:56;;;;;;;2.75;1.60;;;4.30;70.30;;;;;;6124840;23;20184;-66
2022/01/20 07:30:30;;;;;;;2.20;1.17;;;4.30;70.10;;;;;;6124606;23;20552;-67
2022/01/20 07:32:58;;;;;;;4.35;1.75;;;4.30;70.40;;;;;;6125487;23;20159;-66
2022/01/20 07:35:26;;;;;;;2.65;1.67;;;4.30;70.40;;;;;;6125864;23;20550;-67
2022/01/20 07:37:53;;;;;;;3.05;1.80;;;4.30;70.20;;;;;;6126581;23;20228;-66
2022/01/20 07:40:21;;;;;;;2.63;1.55;;;4.30;70.50;;;;;;6123582;23;20165;-66
2022/01/20 07:42:48;;;;;;;2.75;1.35;;;4.40;70.30;;;;;;6125379;23;20173;-66
2022/01/20 07:45:21;;;;;;;2.22;1.08;;;4.40;70.00;;;;;;6126611;23;20279;-67
2022/01/20 07:47:49;;;;;;;2.60;1.50;;;4.50;70.00;;;;;;6125995;23;20161;-67
2022/01/20 07:50:16;;;;;;;2.58;1.13;;;4.50;69.80;;;;;;6126039;23;20165;-68
2022/01/20 07:52:43;;;;;;;3.00;1.58;;;4.50;70.00;;;;;;6126005;23;20180;-67
2022/01/20 07:55:10;;;;;;;3.13;1.88;;;4.60;69.40;;;;;;6126411;23;20688;-67
2022/01/20 07:57:38;;;;;;;2.10;1.55;;;4.60;69.30;;;;;;6125802;23;20169;-71
2022/01/20 08:00:07;;;;;;;3.25;1.45;;;4.60;69.00;;;;;;6126223;23;20169;-68
2022/01/20 08:02:35;;;;;;;2.05;1.02;;;4.70;69.00;;;;;;6125234;23;20227;-67
2022/01/20 08:05:03;;;;;;;2.22;1.20;;;4.70;69.00;;;;;;6126377;23;20260;-68
2022/01/20 08:07:30;;;;;;;2.33;0.90;;;4.70;68.80;;;;;;6126569;23;20229;-67
2022/01/20 08:09:58;;;;;;;2.15;1.10;;;4.70;68.30;;;;;;6125252;23;20225;-67
2022/01/20 08:12:26;;;;;;;2.95;1.42;;;4.70;68.40;;;;;;6125589;23;20207;-67
2022/01/20 08:14:54;;;;;;;2.28;1.27;;;4.70;68.40;;;;;;6126394;23;20203;-67
2022/01/20 08:17:22;;;;;;;3.03;1.90;;;4.80;68.50;;;;;;6125854;23;20169;-67
2022/01/20 08:19:51;;;;;;;4.43;2.10;;;4.80;68.30;;;;;;6126106;23;20168;-67
2022/01/20 08:22:18;;;;;;;2.92;1.38;;;4.80;68.10;;;;;;6126359;23;20636;-68
2022/01/20 08:24:51;;;;;;;2.40;1.40;;;4.80;68.00;;;;;;6126597;23;20519;-67
2022/01/20 08:27:19;;;;;;;3.25;1.92;;;4.80;67.80;;;;;;6122347;23;20213;-68
2022/01/20 08:29:46;;;;;;;3.05;1.23;;;4.80;67.30;;;;;;6124864;23;20175;-67
2022/01/20 08:32:13;;;;;;;2.47;1.40;;;4.90;67.50;;;;;;6126324;23;20223;-67
2022/01/20 08:34:40;;;;;;;2.17;1.10;;;4.90;67.50;;;;;;6125983;23;20177;-66
2022/01/20 08:37:08;;;;;;;2.28;1.15;;;4.90;67.00;;;;;;6126036;23;20192;-68
2022/01/20 08:39:44;;;;;;;2.13;1.00;;;5.00;66.90;;;;;;6126234;23;20543;-69
2022/01/20 08:42:11;;;;;;;2.28;1.35;;;5.00;66.60;;;;;;6126227;23;20521;-67
2022/01/20 08:44:42;;;;;;;2.40;1.30;;;5.10;66.60;;;;;;6123495;23;20169;-67
2022/01/20 08:47:16;;;;;;;5.68;1.40;;;5.00;66.50;;;;;;6125537;23;20157;-67
2022/01/20 08:49:43;;;;;;;3.83;1.50;;;5.00;66.50;;;;;;6126393;23;20198;-67
2022/01/20 08:52:12;;;;;;;3.95;2.40;;;5.10;66.50;;;;;;6126105;23;20173;-67
2022/01/20 08:54:39;;;;;;;2.78;2.05;;;5.10;66.10;;;;;;6126004;23;20232;-67
2022/01/20 08:57:06;;;;;;;3.72;1.83;;;5.20;66.00;;;;;;6126171;23;20227;-67
2022/01/20 08:59:33;;;;;;;3.17;2.03;;;5.20;66.00;;;;;;6126236;23;20528;-67
2022/01/20 09:02:05;;;;;;;2.53;1.65;;;5.20;65.70;;;;;;6125568;23;20629;-67
2022/01/20 09:04:32;;;;;;;3.22;1.85;;;5.20;65.30;;;;;;6125460;23;20157;-67
2022/01/20 09:06:59;;;;;;;3.35;1.85;;;5.20;65.30;;;;;;6126215;23;20169;-68
2022/01/20 09:09:27;;;;;;;3.58;2.42;;;5.30;65.80;;;;;;6126327;23;20173;-67
2022/01/20 09:12:15;;;;;;;2.35;1.50;;;5.30;66.00;;;;;;6125074;23;20173;-68
2022/01/20 09:17:30;;;;;;;2.22;1.50;;;5.30;65.60;;;;;;6126105;23;20600;-67
2022/01/20 09:19:58;;;;;;;2.22;1.38;;;5.20;66.00;;;;;;6125551;23;20168;-67
2022/01/20 09:22:28;;;;;;;2.92;1.40;;;5.20;66.00;;;;;;6125956;23;20169;-67
2022/01/20 09:24:57;;;;;;;5.25;2.00;;;5.20;66.20;;;;;;6126045;23;20590;-67
2022/01/20 09:27:25;;;;;;;3.03;2.20;;;5.20;66.50;;;;;;6125528;23;20228;-67
2022/01/20 09:29:52;;;;;;;2.00;1.15;;;5.30;67.10;;;;;;6125900;23;20490;-67
2022/01/20 09:32:20;;;;;;;2.50;1.75;;;5.30;67.60;;;;;;6125523;23;20180;-67
2022/01/20 09:34:48;;;;;;;2.47;1.50;;;5.20;68.00;;;;;;6124107;23;20169;-67
2022/01/20 09:37:15;;;;;;;3.75;1.77;;;5.30;68.30;;;;;;6125711;23;20165;-68
2022/01/20 09:39:42;;;;;;;2.42;1.35;;;5.30;68.60;;;;;;6125505;23;20165;-67
2022/01/20 09:42:11;;;;;;;2.60;1.55;;;5.30;68.50;;;;;;6125163;23;20192;-67
2022/01/20 09:44:44;;;;;;;2.25;1.10;;;5.30;68.30;;;;;;6125162;23;20169;-67
2022/01/20 09:47:11;;;;;;;2.03;1.27;;;5.30;68.10;;;;;;6125363;23;20161;-68
2022/01/20 09:49:38;;;;;;;2.15;1.45;;;5.30;68.20;;;;;;6125123;23;20676;-67
2022/01/20 09:52:06;;;;;;;2.33;1.30;;;5.40;68.10;;;;;;6124071;23;20219;-67
2022/01/20 09:54:33;;;;;;;1.95;1.20;;;5.40;68.00;;;;;;6124894;23;20169;-67
2022/01/20 09:57:04;;;;;;;2.50;1.25;;;5.40;68.10;;;;;;6125178;23;20165;-68
2022/01/20 09:59:33;;;;;;;2.33;1.40;;;5.40;68.00;;;;;;6125102;23;20220;-67
2022/01/20 10:02:01;;;;;;;3.25;1.60;;;5.40;68.30;;;;;;6125557;23;20165;-67
2022/01/20 10:04:30;;;;;;;2.38;1.40;;;5.40;67.90;;;;;;6125535;23;20169;-67
2022/01/20 10:06:59;;;;;;;2.25;1.40;;;5.40;68.40;;;;;;6125216;23;20216;-67
2022/01/20 10:09:28;;;;;;;3.35;1.65;;;5.40;68.30;;;;;;6125286;23;20200;-67
2022/01/20 10:11:55;;;;;;;2.20;1.50;;;5.50;68.40;;;;;;6123885;23;20232;-70
2022/01/20 10:14:22;;;;;;;3.75;1.50;;;5.50;68.60;;;;;;6124288;23;20228;-67
2022/01/20 10:16:51;;;;;;;2.60;1.70;;;5.50;68.10;;;;;;6124953;23;20216;-67
2022/01/20 10:19:26;;;;;;;2.40;1.30;;;5.50;68.20;;;;;;6125516;23;20172;-67
2022/01/20 10:21:54;;;;;;;2.70;1.70;;;5.50;68.30;;;;;;6125345;23;20248;-68
2022/01/20 10:24:21;;;;;;;3.03;1.83;;;5.40;68.20;;;;;;6125041;23;20330;-67
2022/01/20 10:26:51;;;;;;;2.60;1.70;;;5.50;68.40;;;;;;6124927;23;20196;-67
2022/01/20 10:29:18;;;;;;;3.67;2.22;;;5.50;68.50;;;;;;6125447;23;20215;-67
2022/01/20 10:31:49;;;;;;;4.47;2.10;;;5.50;68.80;;;;;;6125568;23;20165;-67
2022/01/20 10:34:28;;;;;;;4.80;2.80;;;5.50;69.10;;;;;;6125726;23;20179;-67
2022/01/20 10:36:58;;;;;;;3.10;2.60;;;5.50;68.90;;;;;;6122921;23;20492;-67
2022/01/20 10:39:30;;;;;;;3.60;2.00;;;5.50;68.80;;;;;;6124980;23;20157;-69
2022/01/20 10:42:01;;;;;;;2.90;1.65;;;5.50;68.70;;;;;;6125481;23;20168;-67
2022/01/20 10:44:29;;;;;;;2.85;1.92;;;5.50;68.70;;;;;;6125853;23;20165;-67
2022/01/20 10:46:58;;;;;;;3.00;1.90;;;5.50;68.80;;;;;;6125157;23;20220;-67
2022/01/20 10:49:33;;;;;;;3.60;2.58;;;5.50;68.80;;;;;;6125140;23;20168;-67
2022/01/20 10:52:03;;;;;;;3.58;2.20;;;5.60;68.70;;;;;;6125494;23;20157;-68
2022/01/20 10:54:39;;;;;;;2.97;1.85;;;5.60;68.40;;;;;;6125046;23;20616;-67
2022/01/20 10:57:07;;;;;;;3.80;1.80;;;5.60;68.10;;;;;;6125294;23;20638;-68
2022/01/20 10:59:35;;;;;;;3.95;2.10;;;5.60;68.20;;;;;;6125112;23;20247;-67
2022/01/20 11:02:06;;;;;;;5.00;3.30;;;5.60;68.10;;;;;;6125111;23;20173;-67
2022/01/20 11:04:36;;;;;;;10.43;3.20;;;5.50;67.70;;;;;;6125393;23;20526;-67
2022/01/20 11:07:07;;;;;;;3.40;2.70;;;5.60;67.80;;;;;;6125361;23;20185;-67
2022/01/20 11:09:42;;;;;;;3.72;2.85;;;5.60;67.70;;;;;;6125957;23;20157;-67
2022/01/20 11:12:12;;;;;;;3.10;2.20;;;5.60;67.70;;;;;;6127295;23;20207;-67
2022/01/20 11:14:46;;;;;;;4.07;2.35;;;5.60;67.60;;;;;;6127427;23;20193;-67
2022/01/20 11:17:19;;;;;;;2.50;1.88;;;5.70;67.50;;;;;;6125390;23;20624;-67
2022/01/20 11:19:48;;;;;;;4.55;2.00;;;5.70;67.60;;;;;;6127241;23;20161;-67
2022/01/20 11:22:16;;;;;;;3.03;2.10;;;5.80;67.70;;;;;;6127289;23;20541;-67
2022/01/20 11:24:43;;;;;;;3.50;2.30;;;5.90;66.70;;;;;;6127064;23;20169;-67
2022/01/20 11:27:15;;;;;;;3.47;3.10;;;6.00;66.60;;;;;;6127318;23;20197;-67
2022/01/20 11:29:45;;;;;;;3.35;2.05;;;6.20;66.20;;;;;;6127207;23;20220;-67
2022/01/20 11:32:20;;;;;;;3.58;2.47;;;6.20;64.10;;;;;;6124294;23;20193;-73
2022/01/20 11:35:04;;;;;;;3.67;2.40;;;6.40;63.70;;;;;;6126946;23;20172;-67
2022/01/20 11:37:34;;;;;;;4.32;2.78;;;6.50;63.70;;;;;;6127166;23;20157;-67
2022/01/20 11:40:12;;;;;;;5.45;2.67;;;6.60;63.20;;;;;;6126683;23;20161;-67
2022/01/20 11:42:39;;;;;;;3.85;2.80;;;6.70;62.00;;;;;;6126479;23;20157;-67
2022/01/20 11:45:28;;;;;;;5.30;2.85;;;6.80;62.00;;;;;;6126631;23;20169;-68
2022/01/20 11:47:56;;;;;;;3.83;2.40;;;7.00;60.90;;;;;;6127073;23;20157;-67
2022/01/20 11:50:25;;;;;;;3.08;2.75;;;7.20;61.00;;;;;;6126734;23;20228;-67
2022/01/20 11:52:52;;;;;;;3.45;2.28;;;7.40;60.60;;;;;;6126476;23;20177;-68
2022/01/20 11:55:20;;;;;;;2.85;2.05;;;7.70;59.80;;;;;;6126281;23;20633;-68
2022/01/20 11:57:47;;;;;;;2.47;1.88;;;8.10;60.10;;;;;;6126443;23;20169;-67
2022/01/20 12:00:22;;;;;;;3.42;2.25;;;8.80;58.10;;;;;;6126385;23;20165;-67
2022/01/20 12:02:49;;;;;;;2.85;1.73;;;9.40;57.00;;;;;;6126827;23;20474;-68
2022/01/20 12:05:19;;;;;;;2.42;2.17;;;9.90;54.30;;;;;;6125721;23;20224;-67
2022/01/20 12:07:50;;;;;;;5.13;2.65;;;10.10;52.00;;;;;;6126616;23;20349;-68
2022/01/20 12:10:22;;;;;;;4.50;2.45;;;10.10;50.40;;;;;;6125670;23;20232;-68
2022/01/20 12:12:50;;;;;;;2.92;1.90;;;9.80;51.10;;;;;;6125797;23;20656;-67
2022/01/20 12:15:20;;;;;;;4.25;2.15;;;9.80;51.50;;;;;;6126364;23;20157;-67
2022/01/20 12:17:50;;;;;;;2.65;1.92;;;10.10;51.40;;;;;;6126571;23;20165;-67
2022/01/20 12:20:18;;;;;;;3.75;2.17;;;10.60;50.30;;;;;;6126234;23;20951;-68
2022/01/20 12:22:59;;;;;;;3.45;1.95;;;11.50;49.70;;;;;;6123774;23;20220;-74
2022/01/20 12:25:29;;;;;;;3.40;2.40;;;12.50;46.50;;;;;;6124858;23;20161;-68
2022/01/20 12:28:04;;;;;;;2.70;1.70;;;13.40;43.40;;;;;;6125621;23;20165;-68
2022/01/20 12:30:32;;;;;;;3.70;2.40;;;13.90;42.40;;;;;;6125492;23;20153;-71
2022/01/20 12:33:01;;;;;;;2.67;1.63;;;14.70;40.80;;;;;;6125184;23;20471;-68
2022/01/20 12:35:41;;;;;;;3.20;2.33;;;15.20;37.80;;;;;;6125411;23;20164;-69
2022/01/20 12:38:18;;;;;;;4.20;1.97;;;15.60;37.10;;;;;;6125609;23;20385;-68
2022/01/20 12:40:49;;;;;;;3.57;2.37;;;16.30;37.00;;;;;;6125062;23;20388;-68
2022/01/20 12:43:18;;;;;;;3.77;1.83;;;16.20;33.80;;;;;;6125235;23;20385;-68
2022/01/20 12:45:58;;;;;;;2.73;2.00;;;16.30;34.70;;;;;;6125424;23;20451;-68
2022/01/20 12:48:25;;;;;;;3.33;2.00;;;16.00;33.10;;;;;;6125680;23;20716;-70
2022/01/20 12:50:59;;;;;;;3.40;2.17;;;15.80;33.10;;;;;;6124460;23;20409;-70
2022/01/20 12:53:40;;;;;;;2.40;1.60;;;15.70;33.30;;;;;;6125365;23;20436;-69
2022/01/20 12:56:09;;;;;;;3.83;2.03;;;15.80;33.10;;;;;;6125567;23;20385;-68
2022/01/20 12:58:46;;;;;;;4.17;1.80;;;15.80;33.10;;;;;;6126341;23;20760;-68
2022/01/20 13:01:13;;;;;;;2.30;1.60;;;15.80;32.30;;;;;;6126127;23;20537;-68
2022/01/20 13:03:42;;;;;;;5.80;2.03;;;15.90;33.00;;;;;;6126048;23;20399;-69
2022/01/20 13:06:22;;;;;;;3.37;2.00;;;15.70;31.80;;;;;;6123264;23;21023;-68
2022/01/20 13:09:05;;;;;;;3.37;1.73;;;15.70;32.40;;;;;;6125338;23;20392;-68
2022/01/20 13:11:37;;;;;;;2.53;1.80;;;15.40;31.60;;;;;;6125040;23;20896;-69
2022/01/20 13:14:04;;;;;;;3.70;2.00;;;15.10;32.20;;;;;;6124898;23;20428;-68
2022/01/20 13:16:32;;;;;;;3.67;1.50;;;14.90;33.50;;;;;;6125174;23;20403;-69
2022/01/20 13:19:01;;;;;;;2.20;1.50;;;14.80;33.00;;;;;;6125664;23;20480;-68
2022/01/20 13:21:45;;;;;;;2.53;1.80;;;14.70;32.80;;;;;;6125354;23;20476;-68
2022/01/20 13:24:17;;;;;;;2.87;1.90;;;14.50;33.50;;;;;;6125345;23;20420;-68
2022/01/20 13:26:50;;;;;;;3.07;1.63;;;14.60;33.80;;;;;;6124824;23;20432;-68
2022/01/20 13:29:18;;;;;;;2.73;1.30;;;14.70;33.50;;;;;;6125204;23;20389;-68
2022/01/20 13:31:45;;;;;;;4.33;1.70;;;14.50;33.00;;;;;;6124928;23;20478;-68
2022/01/20 13:34:15;;;;;;;5.70;2.03;;;13.90;32.60;;;;;;6125088;23;20499;-68
2022/01/20 13:36:44;;;;;;;2.77;1.20;;;13.20;33.30;;;;;;6124950;23;20544;-68
2022/01/20 13:39:12;;;;;;;2.55;1.67;;;12.50;33.90;;;;;;6124993;23;20396;-68
2022/01/20 13:41:43;;;;;;;2.45;1.50;;;11.80;34.80;;;;;;6124826;23;20175;-68
2022/01/20 13:47:06;;;;;;;2.33;1.33;;;10.60;37.20;;;;;;6125019;23;20228;-69
2022/01/20 13:49:34;;;;;;;2.00;1.50;;;10.10;38.40;;;;;;6125060;23;20169;-68
2022/01/20 13:52:07;;;;;;;2.50;1.60;;;9.60;40.30;;;;;;6124815;23;20621;-67
2022/01/20 13:54:38;;;;;;;3.85;1.77;;;9.20;41.30;;;;;;6124593;23;20266;-67
2022/01/20 13:57:13;;;;;;;3.10;2.00;;;8.80;42.20;;;;;;6124844;23;20172;-69
2022/01/20 13:59:51;;;;;;;3.85;1.80;;;8.50;43.00;;;;;;6124809;23;20223;-68
2022/01/20 14:02:18;;;;;;;3.00;1.58;;;8.30;44.00;;;;;;6124758;23;20160;-68